sensor_id;sensor_type;location;lat;lon;timestamp;pressure;altitude;pressure_sealevel;temperature;humidity
12868;BME280;33517;49.866;8.320;2023-04-20T00:01:31;100655.44;;;6.01;59.11
12868;BME280;33517;49.866;8.320;2023-04-20T00:04:24;100651.84;;;6.02;58.41
12868;BME280;33517;49.866;8.320;2023-04-20T00:07:16;100641.53;;;6.00;58.96
12868;BME280;33517;49.866;8.320;2023-04-20T00:10:08;100650.59;;;5.96;58.87
12868;BME280;33517;49.866;8.320;2023-04-20T00:13:00;100639.56;;;5.93;59.50
12868;BME280;33517;49.866;8.320;2023-04-20T00:15:52;100634.88;;;5.87;59.33
12868;BME280;33517;49.866;8.320;2023-04-20T00:18:45;100632.53;;;5.84;59.55
12868;BME280;33517;49.866;8.320;2023-04-20T00:21:38;100622.56;;;5.78;59.79
12868;BME280;33517;49.866;8.320;2023-04-20T00:24:30;100618.41;;;5.75;59.81
12868;BME280;33517;49.866;8.320;2023-04-20T00:27:22;100618.69;;;5.72;59.93
12868;BME280;33517;49.866;8.320;2023-04-20T00:30:14;100616.44;;;5.68;60.05
12868;BME280;33517;49.866;8.320;2023-04-20T00:33:06;100606.53;;;5.61;60.43
12868;BME280;33517;49.866;8.320;2023-04-20T00:35:57;100602.66;;;5.56;60.69
12868;BME280;33517;49.866;8.320;2023-04-20T00:38:51;100601.38;;;5.50;60.65
12868;BME280;33517;49.866;8.320;2023-04-20T00:41:43;100595.69;;;5.45;60.81
12868;BME280;33517;49.866;8.320;2023-04-20T00:44:34;100592.53;;;5.42;61.88
12868;BME280;33517;49.866;8.320;2023-04-20T00:47:26;100594.69;;;5.37;61.74
12868;BME280;33517;49.866;8.320;2023-04-20T00:50:18;100593.56;;;5.30;62.10
12868;BME280;33517;49.866;8.320;2023-04-20T00:53:10;100586.09;;;5.25;61.88
12868;BME280;33517;49.866;8.320;2023-04-20T00:56:05;100588.38;;;5.19;62.15
12868;BME280;33517;49.866;8.320;2023-04-20T00:58:57;100586.66;;;5.08;62.66
12868;BME280;33517;49.866;8.320;2023-04-20T01:01:49;100579.00;;;4.96;62.67
12868;BME280;33517;49.866;8.320;2023-04-20T01:04:41;100563.41;;;4.85;63.05
12868;BME280;33517;49.866;8.320;2023-04-20T01:07:33;100572.13;;;4.74;64.48
12868;BME280;33517;49.866;8.320;2023-04-20T01:10:24;100564.78;;;4.68;64.26
12868;BME280;33517;49.866;8.320;2023-04-20T01:13:18;100563.38;;;4.64;64.28
12868;BME280;33517;49.866;8.320;2023-04-20T01:16:10;100566.97;;;4.52;64.97
12868;BME280;33517;49.866;8.320;2023-04-20T01:19:02;100560.81;;;4.53;64.85
12868;BME280;33517;49.866;8.320;2023-04-20T01:21:54;100555.81;;;4.50;64.62
12868;BME280;33517;49.866;8.320;2023-04-20T01:24:47;100552.66;;;4.46;65.10
12868;BME280;33517;49.866;8.320;2023-04-20T01:27:39;100547.22;;;4.49;65.85
12868;BME280;33517;49.866;8.320;2023-04-20T01:30:33;100546.13;;;4.52;65.14
12868;BME280;33517;49.866;8.320;2023-04-20T01:33:25;100547.28;;;4.59;65.87
12868;BME280;33517;49.866;8.320;2023-04-20T01:36:17;100542.53;;;4.64;65.37
12868;BME280;33517;49.866;8.320;2023-04-20T01:39:09;100538.84;;;4.66;65.31
12868;BME280;33517;49.866;8.320;2023-04-20T01:42:02;100536.97;;;4.68;65.14
12868;BME280;33517;49.866;8.320;2023-04-20T01:44:54;100537.66;;;4.71;65.16
12868;BME280;33517;49.866;8.320;2023-04-20T01:47:46;100531.59;;;4.70;65.20
12868;BME280;33517;49.866;8.320;2023-04-20T01:50:38;100533.94;;;4.73;65.13
12868;BME280;33517;49.866;8.320;2023-04-20T01:53:30;100525.63;;;4.79;65.86
12868;BME280;33517;49.866;8.320;2023-04-20T01:56:21;100529.66;;;4.83;65.40
12868;BME280;33517;49.866;8.320;2023-04-20T01:59:15;100525.41;;;4.82;65.23
12868;BME280;33517;49.866;8.320;2023-04-20T02:02:06;100520.19;;;4.82;65.06
12868;BME280;33517;49.866;8.320;2023-04-20T02:04:58;100524.00;;;4.78;65.57
12868;BME280;33517;49.866;8.320;2023-04-20T02:07:50;100526.81;;;4.54;66.47
12868;BME280;33517;49.866;8.320;2023-04-20T02:10:42;100523.84;;;4.48;65.70
12868;BME280;33517;49.866;8.320;2023-04-20T02:13:34;100523.84;;;4.48;65.58
12868;BME280;33517;49.866;8.320;2023-04-20T02:16:27;100518.41;;;4.51;66.04
12868;BME280;33517;49.866;8.320;2023-04-20T02:19:19;100520.41;;;4.58;65.78
12868;BME280;33517;49.866;8.320;2023-04-20T02:22:11;100510.56;;;4.62;65.67
12868;BME280;33517;49.866;8.320;2023-04-20T02:25:04;100514.94;;;4.61;65.38
12868;BME280;33517;49.866;8.320;2023-04-20T02:27:56;100500.13;;;4.62;66.36
12868;BME280;33517;49.866;8.320;2023-04-20T02:30:48;100495.75;;;4.62;66.73
12868;BME280;33517;49.866;8.320;2023-04-20T02:33:41;100495.75;;;4.62;66.14
12868;BME280;33517;49.866;8.320;2023-04-20T02:36:33;100492.44;;;4.60;66.51
12868;BME280;33517;49.866;8.320;2023-04-20T02:39:25;100497.19;;;4.55;66.47
12868;BME280;33517;49.866;8.320;2023-04-20T02:42:17;100487.59;;;4.56;66.47
12868;BME280;33517;49.866;8.320;2023-04-20T02:45:10;100491.75;;;4.58;66.51
12868;BME280;33517;49.866;8.320;2023-04-20T02:48:02;100486.41;;;4.60;67.30
12868;BME280;33517;49.866;8.320;2023-04-20T02:50:55;100502.25;;;4.68;66.84
12868;BME280;33517;49.866;8.320;2023-04-20T02:53:47;100490.47;;;4.74;66.83
12868;BME280;33517;49.866;8.320;2023-04-20T02:56:39;100470.75;;;4.81;67.05
12868;BME280;33517;49.866;8.320;2023-04-20T02:59:30;100469.69;;;5.04;66.94
12868;BME280;33517;49.866;8.320;2023-04-20T03:02:22;100462.38;;;5.18;66.55
12868;BME280;33517;49.866;8.320;2023-04-20T03:05:14;100462.84;;;5.33;66.17
12868;BME280;33517;49.866;8.320;2023-04-20T03:08:07;100466.47;;;5.41;66.03
12868;BME280;33517;49.866;8.320;2023-04-20T03:10:59;100467.72;;;5.47;66.03
12868;BME280;33517;49.866;8.320;2023-04-20T03:13:51;100464.28;;;5.46;65.93
12868;BME280;33517;49.866;8.320;2023-04-20T03:16:42;100469.78;;;5.43;66.10
12868;BME280;33517;49.866;8.320;2023-04-20T03:19:34;100464.78;;;5.40;66.44
12868;BME280;33517;49.866;8.320;2023-04-20T03:22:26;100461.34;;;5.40;66.79
12868;BME280;33517;49.866;8.320;2023-04-20T03:25:20;100463.25;;;5.38;67.26
12868;BME280;33517;49.866;8.320;2023-04-20T03:28:12;100455.00;;;5.33;67.41
12868;BME280;33517;49.866;8.320;2023-04-20T03:31:04;100460.50;;;5.30;67.99
12868;BME280;33517;49.866;8.320;2023-04-20T03:33:56;100457.19;;;5.28;68.13
12868;BME280;33517;49.866;8.320;2023-04-20T03:36:48;100456.38;;;5.27;68.95
12868;BME280;33517;49.866;8.320;2023-04-20T03:39:39;100456.38;;;5.27;69.63
12868;BME280;33517;49.866;8.320;2023-04-20T03:42:33;100454.59;;;5.28;69.18
12868;BME280;33517;49.866;8.320;2023-04-20T03:45:24;100444.41;;;5.25;69.60
12868;BME280;33517;49.866;8.320;2023-04-20T03:48:16;100441.94;;;5.23;69.67
12868;BME280;33517;49.866;8.320;2023-04-20T03:51:08;100445.94;;;5.27;70.18
12868;BME280;33517;49.866;8.320;2023-04-20T03:54:00;100444.72;;;5.31;70.00
12868;BME280;33517;49.866;8.320;2023-04-20T03:56:52;100442.81;;;5.33;70.78
12868;BME280;33517;49.866;8.320;2023-04-20T03:59:45;100443.50;;;5.35;71.31
12868;BME280;33517;49.866;8.320;2023-04-20T04:02:37;100443.94;;;5.40;71.30
12868;BME280;33517;49.866;8.320;2023-04-20T04:05:29;100437.91;;;5.49;71.36
12868;BME280;33517;49.866;8.320;2023-04-20T04:08:21;100443.59;;;5.64;71.46
12868;BME280;33517;49.866;8.320;2023-04-20T04:11:12;100431.97;;;5.78;72.07
12868;BME280;33517;49.866;8.320;2023-04-20T04:14:04;100443.97;;;5.90;71.36
12868;BME280;33517;49.866;8.320;2023-04-20T04:16:57;100435.88;;;6.02;71.42
12868;BME280;33517;49.866;8.320;2023-04-20T04:19:49;100439.47;;;6.11;71.84
12868;BME280;33517;49.866;8.320;2023-04-20T04:22:41;100436.44;;;6.15;71.58
12868;BME280;33517;49.866;8.320;2023-04-20T04:25:36;100441.53;;;6.17;71.95
12868;BME280;33517;49.866;8.320;2023-04-20T04:28:28;100438.78;;;6.18;72.31
12868;BME280;33517;49.866;8.320;2023-04-20T04:31:20;100440.31;;;6.21;72.18
12868;BME280;33517;49.866;8.320;2023-04-20T04:34:14;100441.28;;;6.20;72.55
12868;BME280;33517;49.866;8.320;2023-04-20T04:37:07;100442.63;;;6.24;72.87
12868;BME280;33517;49.866;8.320;2023-04-20T04:39:59;100444.59;;;6.31;72.99
12868;BME280;33517;49.866;8.320;2023-04-20T04:42:52;100444.44;;;6.33;73.39
12868;BME280;33517;49.866;8.320;2023-04-20T04:45:45;100438.66;;;6.39;73.45
12868;BME280;33517;49.866;8.320;2023-04-20T04:48:37;100435.63;;;6.43;74.09
12868;BME280;33517;49.866;8.320;2023-04-20T04:51:31;100433.56;;;6.47;74.08
12868;BME280;33517;49.866;8.320;2023-04-20T04:54:23;100432.31;;;6.51;74.79
12868;BME280;33517;49.866;8.320;2023-04-20T04:57:15;100435.47;;;6.54;74.85
12868;BME280;33517;49.866;8.320;2023-04-20T05:00:08;100431.22;;;6.63;74.45
12868;BME280;33517;49.866;8.320;2023-04-20T05:03:01;100429.69;;;6.70;74.50
12868;BME280;33517;49.866;8.320;2023-04-20T05:05:53;100433.00;;;6.72;75.06
12868;BME280;33517;49.866;8.320;2023-04-20T05:08:47;100432.81;;;6.83;74.72
12868;BME280;33517;49.866;8.320;2023-04-20T05:11:38;100438.16;;;7.01;74.12
12868;BME280;33517;49.866;8.320;2023-04-20T05:14:30;100430.16;;;7.12;73.97
12868;BME280;33517;49.866;8.320;2023-04-20T05:17:23;100436.84;;;7.24;74.25
12868;BME280;33517;49.866;8.320;2023-04-20T05:20:15;100437.28;;;7.29;74.07
12868;BME280;33517;49.866;8.320;2023-04-20T05:23:07;100433.78;;;7.38;74.57
12868;BME280;33517;49.866;8.320;2023-04-20T05:26:00;100434.94;;;7.53;73.76
12868;BME280;33517;49.866;8.320;2023-04-20T05:28:52;100432.28;;;7.63;73.45
12868;BME280;33517;49.866;8.320;2023-04-20T05:31:44;100438.47;;;7.71;73.75
12868;BME280;33517;49.866;8.320;2023-04-20T05:34:36;100441.81;;;7.81;74.15
12868;BME280;33517;49.866;8.320;2023-04-20T05:37:28;100441.09;;;7.89;73.38
12868;BME280;33517;49.866;8.320;2023-04-20T05:40:19;100440.22;;;7.98;73.20
12868;BME280;33517;49.866;8.320;2023-04-20T05:43:13;100436.03;;;8.05;73.30
12868;BME280;33517;49.866;8.320;2023-04-20T05:46:06;100438.06;;;8.11;72.99
12868;BME280;33517;49.866;8.320;2023-04-20T05:48:58;100437.91;;;8.12;74.00
12868;BME280;33517;49.866;8.320;2023-04-20T05:51:50;100432.22;;;7.99;73.64
12868;BME280;33517;49.866;8.320;2023-04-20T05:54:42;100439.25;;;7.99;73.33
12868;BME280;33517;49.866;8.320;2023-04-20T05:57:34;100433.25;;;8.06;73.62
12868;BME280;33517;49.866;8.320;2023-04-20T06:00:33;100439.03;;;8.10;73.78
12868;BME280;33517;49.866;8.320;2023-04-20T06:03:25;100440.97;;;8.08;74.02
12868;BME280;33517;49.866;8.320;2023-04-20T06:06:17;100439.75;;;8.02;73.85
12868;BME280;33517;49.866;8.320;2023-04-20T06:09:08;100443.97;;;7.95;74.71
12868;BME280;33517;49.866;8.320;2023-04-20T06:12:00;100446.63;;;7.86;74.92
12868;BME280;33517;49.866;8.320;2023-04-20T06:14:53;100449.78;;;7.89;74.38
12868;BME280;33517;49.866;8.320;2023-04-20T06:17:46;100448.56;;;7.84;75.08
12868;BME280;33517;49.866;8.320;2023-04-20T06:20:38;100442.75;;;7.90;75.19
12868;BME280;33517;49.866;8.320;2023-04-20T06:23:29;100449.28;;;8.03;74.95
12868;BME280;33517;49.866;8.320;2023-04-20T06:26:21;100443.22;;;8.03;74.41
12868;BME280;33517;49.866;8.320;2023-04-20T06:29:14;100447.28;;;8.15;74.00
12868;BME280;33517;49.866;8.320;2023-04-20T06:32:06;100451.44;;;8.08;74.44
12868;BME280;33517;49.866;8.320;2023-04-20T06:34:59;100446.81;;;8.02;74.64
12868;BME280;33517;49.866;8.320;2023-04-20T06:37:51;100452.34;;;7.99;74.55
12868;BME280;33517;49.866;8.320;2023-04-20T06:40:43;100443.28;;;7.93;75.05
12868;BME280;33517;49.866;8.320;2023-04-20T06:43:35;100442.06;;;7.88;76.45
12868;BME280;33517;49.866;8.320;2023-04-20T06:46:27;100441.44;;;7.76;75.93
12868;BME280;33517;49.866;8.320;2023-04-20T06:49:19;100441.59;;;7.75;77.17
12868;BME280;33517;49.866;8.320;2023-04-20T06:52:12;100437.16;;;7.75;76.51
12868;BME280;33517;49.866;8.320;2023-04-20T06:55:05;100434.44;;;7.77;76.91
12868;BME280;33517;49.866;8.320;2023-04-20T06:57:57;100441.09;;;7.89;76.11
12868;BME280;33517;49.866;8.320;2023-04-20T07:00:49;100439.31;;;7.89;76.90
12868;BME280;33517;49.866;8.320;2023-04-20T07:03:41;100434.94;;;7.80;77.31
12868;BME280;33517;49.866;8.320;2023-04-20T07:06:35;100434.06;;;7.89;76.37
12868;BME280;33517;49.866;8.320;2023-04-20T07:09:28;100432.03;;;7.83;76.43
12868;BME280;33517;49.866;8.320;2023-04-20T07:12:20;100428.00;;;7.89;77.02
12868;BME280;33517;49.866;8.320;2023-04-20T07:15:12;100426.50;;;8.04;75.72
12868;BME280;33517;49.866;8.320;2023-04-20T07:18:04;100429.56;;;8.26;76.77
12868;BME280;33517;49.866;8.320;2023-04-20T07:20:56;100436.81;;;8.50;75.04
12868;BME280;33517;49.866;8.320;2023-04-20T07:23:48;100433.56;;;8.74;75.44
12868;BME280;33517;49.866;8.320;2023-04-20T07:26:41;100434.50;;;8.90;75.16
12868;BME280;33517;49.866;8.320;2023-04-20T07:29:33;100449.28;;;9.17;74.54
12868;BME280;33517;49.866;8.320;2023-04-20T07:32:25;100437.59;;;9.37;73.09
12868;BME280;33517;49.866;8.320;2023-04-20T07:35:17;100435.97;;;9.44;72.77
12868;BME280;33517;49.866;8.320;2023-04-20T07:38:09;100435.53;;;9.57;71.88
12868;BME280;33517;49.866;8.320;2023-04-20T07:41:01;100437.81;;;10.01;71.21
12868;BME280;33517;49.866;8.320;2023-04-20T07:43:55;100435.28;;;10.26;70.35
12868;BME280;33517;49.866;8.320;2023-04-20T07:46:47;100437.59;;;10.37;70.24
12868;BME280;33517;49.866;8.320;2023-04-20T07:49:39;100437.91;;;10.82;69.31
12868;BME280;33517;49.866;8.320;2023-04-20T07:52:31;100440.84;;;11.19;67.73
12868;BME280;33517;49.866;8.320;2023-04-20T07:55:23;100444.44;;;11.18;66.88
12868;BME280;33517;49.866;8.320;2023-04-20T07:58:15;100445.28;;;11.02;67.12
12868;BME280;33517;49.866;8.320;2023-04-20T08:01:09;100444.78;;;11.07;66.81
12868;BME280;33517;49.866;8.320;2023-04-20T08:04:01;100438.03;;;11.04;66.87
12868;BME280;33517;49.866;8.320;2023-04-20T08:06:53;100434.38;;;11.30;65.90
12868;BME280;33517;49.866;8.320;2023-04-20T08:09:45;100437.78;;;12.16;64.48
12868;BME280;33517;49.866;8.320;2023-04-20T08:12:37;100429.13;;;13.56;60.91
12868;BME280;33517;49.866;8.320;2023-04-20T08:15:29;100427.13;;;13.58;60.85
12868;BME280;33517;49.866;8.320;2023-04-20T08:18:23;100435.41;;;12.74;60.35
12868;BME280;33517;49.866;8.320;2023-04-20T08:21:14;100442.56;;;11.89;62.19
12868;BME280;33517;49.866;8.320;2023-04-20T08:24:07;100438.59;;;11.47;64.15
12868;BME280;33517;49.866;8.320;2023-04-20T08:26:59;100433.69;;;11.36;63.73
12868;BME280;33517;49.866;8.320;2023-04-20T08:29:51;100433.41;;;11.14;64.06
12868;BME280;33517;49.866;8.320;2023-04-20T08:32:43;100433.72;;;11.20;63.91
12868;BME280;33517;49.866;8.320;2023-04-20T08:35:36;100430.63;;;11.71;63.21
12868;BME280;33517;49.866;8.320;2023-04-20T08:38:29;100421.00;;;12.39;61.83
12868;BME280;33517;49.866;8.320;2023-04-20T08:41:21;100413.75;;;12.93;58.89
12868;BME280;33517;49.866;8.320;2023-04-20T08:44:13;100414.09;;;13.13;58.29
12868;BME280;33517;49.866;8.320;2023-04-20T08:47:05;100405.06;;;13.51;58.21
12868;BME280;33517;49.866;8.320;2023-04-20T08:49:58;100416.00;;;13.62;57.70
12868;BME280;33517;49.866;8.320;2023-04-20T08:52:52;100406.28;;;12.96;57.57
12868;BME280;33517;49.866;8.320;2023-04-20T08:55:44;100416.34;;;12.64;57.84
12868;BME280;33517;49.866;8.320;2023-04-20T08:58:36;100415.81;;;12.68;58.90
12868;BME280;33517;49.866;8.320;2023-04-20T09:01:31;100410.75;;;12.81;58.44
12868;BME280;33517;49.866;8.320;2023-04-20T09:04:25;100407.38;;;12.87;58.75
12868;BME280;33517;49.866;8.320;2023-04-20T09:07:19;100400.41;;;13.09;58.00
12868;BME280;33517;49.866;8.320;2023-04-20T09:10:12;100400.41;;;13.53;57.81
12868;BME280;33517;49.866;8.320;2023-04-20T09:13:04;100395.34;;;13.72;57.26
12868;BME280;33517;49.866;8.320;2023-04-20T09:15:56;100391.56;;;13.96;55.65
12868;BME280;33517;49.866;8.320;2023-04-20T09:18:51;100391.47;;;14.25;55.47
12868;BME280;33517;49.866;8.320;2023-04-20T09:21:47;100388.78;;;14.95;54.74
12868;BME280;33517;49.866;8.320;2023-04-20T09:24:39;100385.09;;;15.24;53.09
12868;BME280;33517;49.866;8.320;2023-04-20T09:27:33;100394.47;;;15.54;51.92
12868;BME280;33517;49.866;8.320;2023-04-20T09:30:36;100393.34;;;15.76;50.95
12868;BME280;33517;49.866;8.320;2023-04-20T09:33:28;100383.44;;;16.17;50.56
12868;BME280;33517;49.866;8.320;2023-04-20T09:36:20;100386.09;;;16.24;49.36
12868;BME280;33517;49.866;8.320;2023-04-20T09:39:13;100382.84;;;16.94;48.66
12868;BME280;33517;49.866;8.320;2023-04-20T09:42:06;100379.00;;;18.67;46.19
12868;BME280;33517;49.866;8.320;2023-04-20T09:45:04;100368.09;;;18.68;44.66
12868;BME280;33517;49.866;8.320;2023-04-20T09:47:56;100369.63;;;17.95;45.71
12868;BME280;33517;49.866;8.320;2023-04-20T09:50:48;100364.91;;;18.28;45.88
12868;BME280;33517;49.866;8.320;2023-04-20T09:53:40;100364.84;;;18.91;44.76
12868;BME280;33517;49.866;8.320;2023-04-20T09:56:34;100363.69;;;18.80;43.67
12868;BME280;33517;49.866;8.320;2023-04-20T09:59:26;100356.44;;;20.49;42.26
12868;BME280;33517;49.866;8.320;2023-04-20T10:02:19;100350.72;;;21.77;38.92
12868;BME280;33517;49.866;8.320;2023-04-20T10:05:11;100347.34;;;21.82;39.42
12868;BME280;33517;49.866;8.320;2023-04-20T10:08:03;100347.97;;;25.75;35.68
12868;BME280;33517;49.866;8.320;2023-04-20T10:10:55;100346.59;;;27.28;32.74
12868;BME280;33517;49.866;8.320;2023-04-20T10:13:47;100344.84;;;28.45;31.63
12868;BME280;33517;49.866;8.320;2023-04-20T10:16:39;100345.47;;;29.84;29.97
12868;BME280;33517;49.866;8.320;2023-04-20T10:19:40;100331.06;;;30.39;27.85
12868;BME280;33517;49.866;8.320;2023-04-20T10:22:32;100320.81;;;29.62;29.41
12868;BME280;33517;49.866;8.320;2023-04-20T10:25:24;100326.34;;;29.75;28.72
12868;BME280;33517;49.866;8.320;2023-04-20T10:28:16;100328.34;;;29.46;27.13
12868;BME280;33517;49.866;8.320;2023-04-20T10:31:09;100314.59;;;28.90;27.35
12868;BME280;33517;49.866;8.320;2023-04-20T10:34:03;100309.56;;;29.31;28.04
12868;BME280;33517;49.866;8.320;2023-04-20T10:37:07;100304.16;;;30.56;26.35
12868;BME280;33517;49.866;8.320;2023-04-20T10:39:59;100295.13;;;30.10;25.98
12868;BME280;33517;49.866;8.320;2023-04-20T10:42:52;100286.53;;;29.89;26.60
12868;BME280;33517;49.866;8.320;2023-04-20T10:45:43;100283.75;;;25.57;29.41
12868;BME280;33517;49.866;8.320;2023-04-20T10:48:35;100280.34;;;26.37;28.86
12868;BME280;33517;49.866;8.320;2023-04-20T10:51:27;100283.81;;;28.58;27.66
12868;BME280;33517;49.866;8.320;2023-04-20T10:54:22;100281.03;;;28.34;27.27
12868;BME280;33517;49.866;8.320;2023-04-20T10:57:15;100273.16;;;28.66;26.99
12868;BME280;33517;49.866;8.320;2023-04-20T11:00:15;100261.13;;;29.62;26.54
12868;BME280;33517;49.866;8.320;2023-04-20T11:03:10;100256.81;;;28.48;26.91
12868;BME280;33517;49.866;8.320;2023-04-20T11:06:02;100239.84;;;29.69;26.53
12868;BME280;33517;49.866;8.320;2023-04-20T11:08:54;100249.25;;;28.73;26.77
12868;BME280;33517;49.866;8.320;2023-04-20T11:11:57;100237.28;;;29.22;26.23
12868;BME280;33517;49.866;8.320;2023-04-20T11:14:50;100233.03;;;28.16;27.14
12868;BME280;33517;49.866;8.320;2023-04-20T11:17:43;100223.78;;;27.88;26.88
12868;BME280;33517;49.866;8.320;2023-04-20T11:20:35;100213.31;;;24.61;29.06
12868;BME280;33517;49.866;8.320;2023-04-20T11:23:36;100216.41;;;22.02;31.55
12868;BME280;33517;49.866;8.320;2023-04-20T11:26:33;100218.81;;;20.16;33.76
12868;BME280;33517;49.866;8.320;2023-04-20T11:29:28;100215.44;;;19.27;35.05
12868;BME280;33517;49.866;8.320;2023-04-20T11:32:20;100204.00;;;19.79;34.97
12868;BME280;33517;49.866;8.320;2023-04-20T11:35:12;100205.81;;;18.78;36.13
12868;BME280;33517;49.866;8.320;2023-04-20T11:38:04;100205.53;;;17.45;37.97
12868;BME280;33517;49.866;8.320;2023-04-20T11:40:57;100198.59;;;17.00;38.92
12868;BME280;33517;49.866;8.320;2023-04-20T11:43:53;100199.97;;;16.65;39.91
12868;BME280;33517;49.866;8.320;2023-04-20T11:46:47;100200.66;;;16.21;40.78
12868;BME280;33517;49.866;8.320;2023-04-20T11:49:39;100191.91;;;15.88;41.62
12868;BME280;33517;49.866;8.320;2023-04-20T11:52:31;100203.13;;;15.63;42.99
12868;BME280;33517;49.866;8.320;2023-04-20T11:55:23;100191.69;;;15.50;43.48
12868;BME280;33517;49.866;8.320;2023-04-20T11:58:15;100184.94;;;15.74;43.58
12868;BME280;33517;49.866;8.320;2023-04-20T12:01:07;100176.59;;;15.90;42.98
12868;BME280;33517;49.866;8.320;2023-04-20T12:04:01;100169.44;;;16.03;44.23
12868;BME280;33517;49.866;8.320;2023-04-20T12:06:52;100174.31;;;16.06;43.42
12868;BME280;33517;49.866;8.320;2023-04-20T12:09:45;100165.34;;;16.01;43.64
12868;BME280;33517;49.866;8.320;2023-04-20T12:12:36;100164.75;;;15.92;43.54
12868;BME280;33517;49.866;8.320;2023-04-20T12:15:31;100172.91;;;15.64;44.19
12868;BME280;33517;49.866;8.320;2023-04-20T12:18:23;100163.53;;;15.42;44.38
12868;BME280;33517;49.866;8.320;2023-04-20T12:21:16;100175.31;;;15.40;44.26
12868;BME280;33517;49.866;8.320;2023-04-20T12:24:08;100174.03;;;15.29;44.47
12868;BME280;33517;49.866;8.320;2023-04-20T12:27:00;100170.78;;;15.27;45.13
12868;BME280;33517;49.866;8.320;2023-04-20T12:29:53;100174.91;;;15.36;45.25
12868;BME280;33517;49.866;8.320;2023-04-20T12:32:45;100158.78;;;15.38;45.27
12868;BME280;33517;49.866;8.320;2023-04-20T12:35:37;100161.88;;;15.48;44.92
12868;BME280;33517;49.866;8.320;2023-04-20T12:38:30;100167.72;;;15.37;45.07
12868;BME280;33517;49.866;8.320;2023-04-20T12:41:22;100161.00;;;15.28;45.44
12868;BME280;33517;49.866;8.320;2023-04-20T12:44:15;100161.19;;;15.20;45.72
12868;BME280;33517;49.866;8.320;2023-04-20T12:47:06;100159.84;;;15.50;45.46
12868;BME280;33517;49.866;8.320;2023-04-20T12:49:58;100155.31;;;16.22;44.93
12868;BME280;33517;49.866;8.320;2023-04-20T12:52:50;100157.72;;;17.32;43.27
12868;BME280;33517;49.866;8.320;2023-04-20T12:55:43;100144.13;;;18.38;42.14
12868;BME280;33517;49.866;8.320;2023-04-20T12:58:36;100160.16;;;18.32;42.04
12868;BME280;33517;49.866;8.320;2023-04-20T13:01:27;100147.44;;;18.88;40.39
12868;BME280;33517;49.866;8.320;2023-04-20T13:04:19;100151.28;;;17.77;41.75
12868;BME280;33517;49.866;8.320;2023-04-20T13:07:11;100157.34;;;16.84;42.86
12868;BME280;33517;49.866;8.320;2023-04-20T13:10:04;100163.28;;;16.22;43.29
12868;BME280;33517;49.866;8.320;2023-04-20T13:12:57;100153.47;;;16.16;43.83
12868;BME280;33517;49.866;8.320;2023-04-20T13:15:52;100158.97;;;16.21;43.68
12868;BME280;33517;49.866;8.320;2023-04-20T13:18:44;100165.75;;;15.91;43.75
12868;BME280;33517;49.866;8.320;2023-04-20T13:21:36;100161.06;;;15.47;44.72
12868;BME280;33517;49.866;8.320;2023-04-20T13:24:27;100166.09;;;15.23;45.26
12868;BME280;33517;49.866;8.320;2023-04-20T13:27:19;100157.28;;;15.09;45.32
12868;BME280;33517;49.866;8.320;2023-04-20T13:30:13;100159.25;;;14.81;45.67
12868;BME280;33517;49.866;8.320;2023-04-20T13:33:05;100156.47;;;14.48;46.45
12868;BME280;33517;49.866;8.320;2023-04-20T13:35:57;100165.81;;;14.17;46.54
12868;BME280;33517;49.866;8.320;2023-04-20T13:38:49;100165.28;;;13.72;46.31
12868;BME280;33517;49.866;8.320;2023-04-20T13:41:43;100175.94;;;13.37;45.47
12868;BME280;33517;49.866;8.320;2023-04-20T13:44:35;100183.97;;;12.93;45.14
12868;BME280;33517;49.866;8.320;2023-04-20T13:47:28;100188.19;;;12.73;44.65
12868;BME280;33517;49.866;8.320;2023-04-20T13:50:20;100188.47;;;12.63;46.38
12868;BME280;33517;49.866;8.320;2023-04-20T13:53:12;100188.19;;;12.87;44.81
12868;BME280;33517;49.866;8.320;2023-04-20T13:56:04;100187.84;;;13.26;44.03
12868;BME280;33517;49.866;8.320;2023-04-20T13:58:56;100192.75;;;13.71;43.86
12868;BME280;33517;49.866;8.320;2023-04-20T14:01:48;100202.88;;;13.89;45.48
12868;BME280;33517;49.866;8.320;2023-04-20T14:04:41;100191.75;;;14.00;46.29
12868;BME280;33517;49.866;8.320;2023-04-20T14:07:33;100193.63;;;14.06;45.85
12868;BME280;33517;49.866;8.320;2023-04-20T14:10:25;100183.44;;;14.31;45.23
12868;BME280;33517;49.866;8.320;2023-04-20T14:13:17;100185.13;;;14.79;44.63
12868;BME280;33517;49.866;8.320;2023-04-20T14:16:10;100183.53;;;14.91;43.40
12868;BME280;33517;49.866;8.320;2023-04-20T14:19:03;100190.25;;;14.94;43.59
12868;BME280;33517;49.866;8.320;2023-04-20T14:22:00;100192.38;;;15.11;43.00
12868;BME280;33517;49.866;8.320;2023-04-20T14:24:55;100192.19;;;15.26;42.47
12868;BME280;33517;49.866;8.320;2023-04-20T14:27:46;100189.94;;;15.10;42.38
12868;BME280;33517;49.866;8.320;2023-04-20T14:30:38;100196.34;;;14.88;43.15
12868;BME280;33517;49.866;8.320;2023-04-20T14:33:30;100200.13;;;14.65;44.32
12868;BME280;33517;49.866;8.320;2023-04-20T14:36:22;100195.13;;;14.15;45.05
12868;BME280;33517;49.866;8.320;2023-04-20T14:39:18;100210.13;;;14.08;46.82
12868;BME280;33517;49.866;8.320;2023-04-20T14:42:10;100202.13;;;13.74;46.09
12868;BME280;33517;49.866;8.320;2023-04-20T14:45:03;100209.03;;;13.54;46.14
12868;BME280;33517;49.866;8.320;2023-04-20T14:47:56;100201.31;;;13.52;46.75
12868;BME280;33517;49.866;8.320;2023-04-20T14:50:47;100210.09;;;13.17;47.52
12868;BME280;33517;49.866;8.320;2023-04-20T14:53:39;100213.41;;;13.05;48.47
12868;BME280;33517;49.866;8.320;2023-04-20T14:56:33;100215.22;;;13.04;47.58
12868;BME280;33517;49.866;8.320;2023-04-20T14:59:25;100212.28;;;13.14;47.77
12868;BME280;33517;49.866;8.320;2023-04-20T15:02:17;100201.81;;;13.06;49.36
12868;BME280;33517;49.866;8.320;2023-04-20T15:05:09;100197.00;;;12.94;49.71
12868;BME280;33517;49.866;8.320;2023-04-20T15:08:00;100200.38;;;12.88;50.05